createdAt,value
2022-12-05T00:00:37.307Z,0.60
2022-12-05T00:03:04.182Z,0.60
2022-12-05T00:05:30.899Z,0.52
2022-12-05T00:07:57.294Z,0.60
2022-12-05T00:10:23.681Z,0.50
2022-12-05T00:12:50.012Z,0.60
2022-12-05T00:15:16.408Z,0.50
2022-12-05T00:17:42.701Z,0.40
2022-12-05T00:20:09.916Z,0.40
2022-12-05T00:22:38.052Z,0.40
2022-12-05T00:25:06.356Z,0.30
2022-12-05T00:27:33.109Z,0.30
2022-12-05T00:29:59.763Z,0.40
2022-12-05T00:32:27.920Z,0.43
2022-12-05T00:34:54.268Z,0.32
2022-12-05T00:37:20.673Z,0.40
2022-12-05T00:39:46.987Z,0.40
2022-12-05T00:42:13.532Z,0.40
2022-12-05T00:44:39.884Z,0.40
2022-12-05T00:47:06.185Z,0.30
2022-12-05T00:49:32.665Z,0.60
2022-12-05T00:51:59.093Z,0.38
2022-12-05T00:54:25.398Z,0.40
2022-12-05T00:56:56.451Z,0.30
2022-12-05T00:59:22.914Z,0.30
2022-12-05T01:01:50.123Z,0.30
2022-12-05T01:04:18.131Z,0.32
2022-12-05T01:06:44.715Z,0.47
2022-12-05T01:09:12.393Z,0.30
2022-12-05T01:11:41.473Z,0.30
2022-12-05T01:14:08.808Z,0.50
2022-12-05T01:16:35.922Z,0.40
2022-12-05T01:19:04.260Z,0.40
2022-12-05T01:21:30.613Z,0.30
2022-12-05T01:23:57.072Z,0.40
2022-12-05T01:26:23.883Z,0.68
2022-12-05T01:28:50.919Z,0.40
2022-12-05T01:31:34.102Z,0.30
2022-12-05T01:34:01.342Z,0.38
2022-12-05T01:36:28.044Z,0.40
2022-12-05T01:38:55.064Z,0.40
2022-12-05T01:41:23.148Z,0.40
2022-12-05T01:44:03.511Z,0.30
2022-12-05T01:46:31.287Z,0.40
2022-12-05T01:49:01.081Z,0.57
2022-12-05T01:51:27.709Z,0.40
2022-12-05T01:53:54.070Z,0.40
2022-12-05T01:56:20.636Z,0.30
2022-12-05T01:58:47.848Z,0.22
2022-12-05T02:01:15.162Z,0.30
2022-12-05T02:03:42.502Z,0.22
2022-12-05T02:06:09.322Z,0.30
2022-12-05T02:08:36.236Z,0.25
2022-12-05T02:11:02.629Z,0.20
2022-12-05T02:13:35.433Z,0.20
2022-12-05T02:16:01.710Z,0.35
2022-12-05T02:18:31.149Z,0.30
2022-12-05T02:21:09.608Z,0.30
2022-12-05T02:23:35.929Z,0.20
2022-12-05T02:26:08.497Z,0.30
2022-12-05T02:28:55.055Z,0.40
2022-12-05T02:31:21.408Z,0.30
2022-12-05T02:33:49.773Z,0.30
2022-12-05T02:36:23.968Z,0.40
2022-12-05T02:38:54.074Z,0.40
2022-12-05T02:41:20.397Z,0.40
2022-12-05T02:44:12.043Z,0.30
2022-12-05T02:46:40.220Z,0.30
2022-12-05T02:49:11.795Z,0.25
2022-12-05T02:51:46.159Z,0.30
2022-12-05T02:54:17.751Z,0.20
2022-12-05T02:56:45.337Z,0.20
2022-12-05T02:59:11.866Z,0.20
2022-12-05T03:01:38.287Z,0.30
2022-12-05T03:04:06.059Z,0.25
2022-12-05T03:06:34.812Z,0.20
2022-12-05T03:09:02.753Z,0.20
2022-12-05T03:11:31.364Z,0.20
2022-12-05T03:13:58.958Z,0.30
2022-12-05T03:16:28.379Z,0.30
2022-12-05T03:19:07.104Z,0.30
2022-12-05T03:21:43.028Z,0.30
2022-12-05T03:24:11.586Z,0.30
2022-12-05T03:26:44.972Z,0.32
2022-12-05T03:29:11.292Z,0.28
2022-12-05T03:31:57.846Z,0.30
2022-12-05T03:34:32.174Z,0.20
2022-12-05T03:37:01.030Z,0.30
2022-12-05T03:39:29.780Z,0.30
2022-12-05T03:42:03.067Z,0.30
2022-12-05T03:44:29.339Z,0.30
2022-12-05T03:47:28.225Z,0.30
2022-12-05T03:49:57.947Z,0.30
2022-12-05T03:52:27.262Z,0.22
2022-12-05T03:54:56.048Z,0.30
2022-12-05T03:57:31.248Z,0.40
2022-12-05T04:00:01.123Z,0.30
2022-12-05T04:02:33.636Z,0.30
2022-12-05T04:05:08.167Z,0.28
2022-12-05T04:07:35.735Z,0.30
2022-12-05T04:10:14.199Z,0.40
2022-12-05T04:12:41.852Z,0.50
2022-12-05T04:15:10.830Z,0.32
2022-12-05T04:17:39.959Z,0.40
2022-12-05T04:20:35.653Z,0.70
2022-12-05T04:23:02.440Z,0.60
2022-12-05T04:25:36.383Z,0.60
2022-12-05T04:28:23.062Z,0.50
2022-12-05T04:31:01.919Z,0.40
2022-12-05T04:33:54.922Z,0.35
2022-12-05T04:36:25.342Z,0.30
2022-12-05T04:38:54.369Z,0.40
2022-12-05T04:41:22.837Z,0.30
2022-12-05T04:43:49.680Z,0.30
2022-12-05T04:46:17.086Z,0.20
2022-12-05T04:48:45.200Z,0.35
2022-12-05T04:51:15.173Z,0.30
2022-12-05T04:53:42.571Z,0.38
2022-12-05T04:56:09.778Z,0.40
2022-12-05T04:58:36.202Z,0.60
2022-12-05T05:01:05.077Z,0.80
2022-12-05T05:03:46.029Z,0.40
2022-12-05T05:06:12.913Z,0.47
2022-12-05T05:08:46.920Z,0.32
2022-12-05T05:11:14.681Z,0.32
2022-12-05T05:13:41.070Z,0.32
2022-12-05T05:16:07.931Z,0.30
2022-12-05T05:18:34.358Z,0.30
2022-12-05T05:21:00.696Z,0.30
2022-12-05T05:23:27.040Z,0.35
2022-12-05T05:25:54.082Z,0.30
2022-12-05T05:28:20.395Z,0.45
2022-12-05T05:30:47.000Z,1.88
2022-12-05T05:33:13.563Z,1.55
2022-12-05T05:35:39.996Z,2.08
2022-12-05T05:38:06.546Z,1.80
2022-12-05T05:40:34.870Z,1.40
2022-12-05T05:43:01.216Z,1.83
2022-12-05T05:45:27.705Z,1.65
2022-12-05T05:47:54.037Z,2.00
2022-12-05T05:50:22.058Z,1.60
2022-12-05T05:52:48.666Z,1.38
2022-12-05T05:55:15.019Z,1.10
2022-12-05T05:57:41.376Z,1.20
2022-12-05T06:00:08.215Z,1.00
2022-12-05T06:02:34.935Z,1.00
2022-12-05T06:05:01.777Z,1.48
2022-12-05T06:07:28.519Z,0.80
2022-12-05T06:09:55.005Z,1.10
2022-12-05T06:12:22.049Z,1.23
2022-12-05T06:14:49.129Z,2.03
2022-12-05T06:17:15.533Z,1.80
2022-12-05T06:19:41.924Z,1.42
2022-12-05T06:22:08.401Z,0.80
2022-12-05T06:24:34.692Z,0.70
2022-12-05T06:27:00.999Z,1.00
2022-12-05T06:29:31.139Z,1.55
2022-12-05T06:32:00.083Z,1.02
2022-12-05T06:34:26.467Z,1.25
2022-12-05T06:36:52.807Z,1.40
2022-12-05T06:39:19.141Z,1.75
2022-12-05T06:41:45.505Z,1.92
2022-12-05T06:44:12.269Z,1.50
2022-12-05T06:46:38.626Z,1.80
2022-12-05T06:49:04.988Z,1.80
2022-12-05T06:51:31.475Z,1.75
2022-12-05T06:53:57.841Z,1.30
2022-12-05T06:56:24.179Z,1.20
2022-12-05T06:58:52.417Z,0.80
2022-12-05T07:01:38.680Z,0.70
2022-12-05T07:04:06.123Z,0.50
2022-12-05T07:06:33.460Z,0.50
2022-12-05T07:09:01.002Z,0.30
2022-12-05T07:11:27.403Z,0.40
2022-12-05T07:13:53.707Z,0.43
2022-12-05T07:16:20.087Z,0.50
2022-12-05T07:18:46.587Z,0.50
2022-12-05T07:21:14.114Z,0.32
2022-12-05T07:23:41.423Z,0.40
2022-12-05T07:26:08.812Z,0.30
2022-12-05T07:28:35.360Z,0.47
2022-12-05T07:31:06.313Z,0.77
2022-12-05T07:33:33.135Z,1.10
2022-12-05T07:36:00.557Z,0.70
2022-12-05T07:38:26.927Z,0.75
2022-12-05T07:40:53.334Z,0.60
2022-12-05T07:43:19.834Z,0.50
2022-12-05T07:45:46.148Z,0.40
2022-12-05T07:48:17.043Z,0.30
2022-12-05T07:50:45.115Z,0.50
2022-12-05T07:53:11.409Z,1.15
2022-12-05T07:55:38.279Z,1.00
2022-12-05T07:58:04.697Z,0.88
2022-12-05T08:00:31.045Z,0.60
2022-12-05T08:02:57.486Z,0.52
2022-12-05T08:05:23.800Z,0.40
2022-12-05T08:07:50.195Z,0.52
2022-12-05T08:10:16.669Z,0.40
2022-12-05T08:12:42.959Z,0.30
2022-12-05T08:15:09.749Z,0.30
2022-12-05T08:17:36.171Z,0.20
2022-12-05T08:20:02.625Z,0.30
2022-12-05T08:22:29.300Z,0.20
2022-12-05T08:24:56.483Z,0.28
2022-12-05T08:27:22.957Z,0.20
2022-12-05T08:29:49.238Z,0.40
2022-12-05T08:32:16.024Z,0.40
2022-12-05T08:34:42.470Z,0.40
2022-12-05T08:37:08.795Z,0.30
2022-12-05T08:39:38.661Z,0.32
2022-12-05T08:42:05.405Z,0.30
2022-12-05T08:44:31.785Z,0.80
2022-12-05T08:46:58.151Z,1.70
2022-12-05T08:49:24.496Z,2.33
2022-12-05T08:51:50.787Z,1.70
2022-12-05T08:54:17.271Z,2.78
2022-12-05T08:56:43.639Z,2.70
2022-12-05T08:59:10.003Z,2.60
2022-12-05T09:01:39.002Z,3.20
2022-12-05T09:04:06.348Z,2.47
2022-12-05T09:06:34.273Z,1.83
2022-12-05T09:09:02.656Z,1.80
2022-12-05T09:11:30.475Z,2.58
2022-12-05T09:13:57.782Z,2.42
2022-12-05T09:16:26.131Z,1.40
2022-12-05T09:18:52.605Z,1.00
2022-12-05T09:21:23.420Z,0.70
2022-12-05T09:23:50.355Z,0.55
2022-12-05T09:26:17.844Z,0.60
2022-12-05T09:28:44.351Z,0.43
2022-12-05T09:31:12.656Z,0.40
2022-12-05T09:33:39.003Z,0.40
2022-12-05T09:36:06.360Z,0.57
2022-12-05T09:38:32.783Z,0.43
2022-12-05T09:41:11.633Z,0.80
2022-12-05T09:43:45.274Z,0.50
2022-12-05T09:46:25.386Z,0.90
2022-12-05T09:48:52.080Z,2.00
2022-12-05T09:51:18.561Z,5.40
2022-12-05T09:53:45.044Z,4.55
2022-12-05T09:56:20.348Z,2.88
2022-12-05T09:58:48.009Z,2.38
2022-12-05T10:01:24.525Z,3.15
2022-12-05T10:04:07.431Z,3.50
2022-12-05T10:06:52.503Z,2.03
2022-12-05T10:09:24.997Z,2.08
2022-12-05T10:12:14.650Z,2.22
2022-12-05T10:14:43.809Z,1.20
2022-12-05T10:17:36.267Z,1.20
2022-12-05T10:20:06.367Z,0.90
2022-12-05T10:22:39.643Z,0.73
2022-12-05T10:25:06.715Z,1.10
2022-12-05T10:27:40.392Z,1.85
2022-12-05T10:30:08.309Z,1.60
2022-12-05T10:32:40.777Z,1.85
2022-12-05T10:35:15.034Z,1.58
2022-12-05T10:37:44.110Z,1.58
2022-12-05T10:40:12.048Z,2.40
2022-12-05T10:42:38.786Z,1.95
2022-12-05T10:45:08.117Z,1.10
2022-12-05T10:47:34.938Z,0.90
2022-12-05T10:50:06.117Z,1.10
2022-12-05T10:52:32.595Z,1.40
2022-12-05T10:55:02.228Z,1.23
2022-12-05T10:57:32.428Z,0.93
2022-12-05T11:00:08.846Z,0.93
2022-12-05T11:02:36.859Z,0.98
2022-12-05T11:05:04.278Z,1.00
2022-12-05T11:07:32.242Z,0.90
2022-12-05T11:10:00.213Z,1.50
2022-12-05T11:12:36.146Z,1.20
2022-12-05T11:15:05.172Z,1.10
2022-12-05T11:17:38.406Z,0.80
2022-12-05T11:20:25.232Z,0.63
2022-12-05T11:22:52.628Z,0.40
2022-12-05T11:25:28.341Z,0.30
2022-12-05T11:28:00.816Z,0.38
2022-12-05T11:30:29.286Z,0.40
2022-12-05T11:33:12.239Z,0.20
2022-12-05T11:35:39.126Z,0.30
2022-12-05T11:38:05.545Z,0.20
2022-12-05T11:40:40.903Z,0.30
2022-12-05T11:43:07.221Z,0.45
2022-12-05T11:45:45.953Z,0.40
2022-12-05T11:48:12.239Z,0.30
2022-12-05T11:50:52.631Z,0.50
2022-12-05T11:53:18.960Z,0.60
2022-12-05T11:55:50.204Z,0.50
2022-12-05T11:58:27.826Z,0.45
2022-12-05T12:00:59.977Z,0.43
2022-12-05T12:03:51.092Z,0.60
2022-12-05T12:06:25.162Z,2.70
2022-12-05T12:09:10.347Z,4.20
2022-12-05T12:11:55.265Z,3.33
2022-12-05T12:14:27.759Z,3.00
2022-12-05T12:17:03.043Z,1.90
2022-12-05T12:19:32.298Z,2.45
2022-12-05T12:21:58.616Z,3.20
2022-12-05T12:24:27.877Z,4.25
2022-12-05T12:26:57.404Z,3.17
2022-12-05T12:29:30.332Z,3.65
2022-12-05T12:31:56.779Z,2.20
2022-12-05T12:34:31.917Z,2.80
2022-12-05T12:37:08.052Z,4.30
2022-12-05T12:39:50.949Z,3.35
2022-12-05T12:42:21.808Z,3.45
2022-12-05T12:45:00.828Z,2.60
2022-12-05T12:47:46.033Z,2.42
2022-12-05T12:50:21.680Z,2.45
2022-12-05T12:52:54.235Z,2.20
2022-12-05T12:55:29.033Z,2.30
2022-12-05T12:58:16.005Z,2.90
2022-12-05T13:00:42.558Z,2.60
2022-12-05T13:03:25.489Z,2.30
2022-12-05T13:05:54.086Z,2.00
2022-12-05T13:08:26.684Z,2.10
2022-12-05T13:10:53.592Z,1.63
2022-12-05T13:13:22.176Z,1.27
2022-12-05T13:15:52.741Z,2.05
2022-12-05T13:18:21.355Z,1.70
2022-12-05T13:20:52.492Z,1.50
2022-12-05T13:23:21.038Z,1.50
2022-12-05T13:25:47.855Z,1.50
2022-12-05T13:28:28.287Z,1.90
2022-12-05T13:30:57.879Z,1.80
2022-12-05T13:33:30.647Z,1.48
2022-12-05T13:36:21.509Z,1.90
2022-12-05T13:39:06.337Z,1.67
2022-12-05T13:42:02.113Z,1.17
2022-12-05T13:44:30.556Z,0.90
2022-12-05T13:46:56.874Z,1.40
2022-12-05T13:49:32.494Z,1.00
2022-12-05T13:52:18.302Z,1.00
2022-12-05T13:54:51.956Z,0.70
2022-12-05T13:57:36.753Z,0.70
2022-12-05T14:00:07.367Z,0.60
2022-12-05T14:02:47.095Z,0.90
2022-12-05T14:05:13.523Z,1.00
2022-12-05T14:07:47.027Z,0.80
2022-12-05T14:10:33.638Z,0.60
2022-12-05T14:13:01.860Z,0.60
2022-12-05T14:15:28.667Z,0.60
2022-12-05T14:18:01.069Z,0.50
2022-12-05T14:20:30.408Z,0.50
2022-12-05T14:22:56.733Z,0.50
2022-12-05T14:25:35.546Z,0.52
2022-12-05T14:28:04.947Z,0.32
2022-12-05T14:30:36.965Z,0.30
2022-12-05T14:35:41.544Z,0.40
2022-12-05T14:38:19.255Z,0.40
2022-12-05T14:40:46.793Z,0.40
2022-12-05T14:43:20.920Z,0.50
2022-12-05T14:45:53.413Z,0.50
2022-12-05T14:48:19.720Z,0.60
2022-12-05T14:50:46.107Z,0.55
2022-12-05T14:53:20.654Z,0.57
2022-12-05T14:55:54.914Z,1.58
2022-12-05T14:58:27.105Z,0.82
2022-12-05T15:00:57.977Z,1.33
2022-12-05T15:03:32.595Z,1.35
2022-12-05T15:06:03.727Z,1.08
2022-12-05T15:08:32.900Z,1.60
2022-12-05T15:10:59.896Z,1.33
2022-12-05T15:13:28.414Z,0.80
2022-12-05T15:15:57.777Z,2.25
2022-12-05T15:18:34.544Z,2.00
2022-12-05T15:21:19.749Z,1.55
2022-12-05T15:23:55.534Z,1.35
2022-12-05T15:29:29.752Z,0.63
2022-12-05T15:32:19.108Z,0.70
2022-12-05T15:34:46.976Z,0.70
2022-12-05T15:37:19.484Z,0.50
2022-12-05T15:39:56.199Z,0.50
2022-12-05T15:42:29.022Z,0.47
2022-12-05T15:45:14.749Z,0.40
2022-12-05T15:47:41.077Z,0.50
2022-12-05T15:50:26.300Z,0.40
2022-12-05T15:52:58.259Z,0.30
2022-12-05T15:55:24.644Z,0.38
2022-12-05T15:57:53.935Z,0.30
2022-12-05T16:00:22.112Z,0.30
2022-12-05T16:03:02.666Z,0.20
2022-12-05T16:05:33.978Z,0.30
2022-12-05T16:08:01.884Z,0.30
2022-12-05T16:10:29.899Z,0.25
2022-12-05T16:12:56.544Z,0.22
2022-12-05T16:15:24.733Z,0.25
2022-12-05T16:17:58.907Z,0.20
2022-12-05T16:20:29.562Z,0.30
2022-12-05T16:22:56.907Z,0.30
2022-12-05T16:25:25.446Z,0.40
2022-12-05T16:28:15.905Z,0.80
2022-12-05T16:30:52.808Z,0.40
2022-12-05T16:33:19.225Z,0.50
2022-12-05T16:35:46.173Z,0.68
2022-12-05T16:38:14.793Z,0.50
2022-12-05T16:40:50.918Z,0.60
2022-12-05T16:43:32.952Z,0.60
2022-12-05T16:46:11.644Z,0.57
2022-12-05T16:48:38.932Z,0.77
2022-12-05T16:51:11.664Z,0.60
2022-12-05T16:53:39.413Z,0.60
2022-12-05T16:56:06.764Z,0.40
2022-12-05T16:58:35.052Z,0.60
2022-12-05T17:01:02.839Z,0.50
2022-12-05T17:03:36.636Z,0.50
2022-12-05T17:06:03.288Z,0.60
2022-12-05T17:08:30.116Z,0.40
2022-12-05T17:10:56.583Z,0.35
2022-12-05T17:13:23.017Z,0.40
2022-12-05T17:15:49.909Z,0.30
2022-12-05T17:18:17.762Z,0.32
2022-12-05T17:20:46.073Z,0.30
2022-12-05T17:23:14.168Z,0.45
2022-12-05T17:25:51.218Z,0.50
2022-12-05T17:28:17.886Z,0.50
2022-12-05T17:30:44.235Z,0.30
2022-12-05T17:33:15.136Z,0.30
2022-12-05T17:35:41.815Z,0.30
2022-12-05T17:38:08.805Z,0.40
2022-12-05T17:40:35.187Z,0.50
2022-12-05T17:43:01.528Z,0.52
2022-12-05T17:45:27.945Z,0.60
2022-12-05T17:47:54.297Z,0.47
2022-12-05T17:50:21.835Z,0.40
2022-12-05T17:52:51.935Z,0.60
2022-12-05T17:55:22.832Z,0.40
2022-12-05T17:57:49.536Z,0.57
2022-12-05T18:00:16.850Z,0.43
2022-12-05T18:02:44.058Z,0.50
2022-12-05T18:05:11.453Z,0.90
2022-12-05T18:07:38.350Z,0.88
2022-12-05T18:10:12.517Z,0.70
2022-12-05T18:12:39.318Z,0.50
2022-12-05T18:15:05.881Z,0.77
2022-12-05T18:17:32.282Z,0.70
2022-12-05T18:19:58.726Z,0.70
2022-12-05T18:22:25.892Z,0.98
2022-12-05T18:24:53.004Z,0.63
2022-12-05T18:27:19.935Z,0.63
2022-12-05T18:29:49.608Z,1.13
2022-12-05T18:32:16.465Z,0.85
2022-12-05T18:34:42.825Z,1.15
2022-12-05T18:37:10.706Z,1.30
2022-12-05T18:39:37.770Z,1.20
2022-12-05T18:42:04.784Z,1.50
2022-12-05T18:44:31.461Z,1.48
2022-12-05T18:46:58.316Z,0.75
2022-12-05T18:49:24.816Z,1.05
2022-12-05T18:51:51.157Z,1.00
2022-12-05T18:54:19.012Z,0.98
2022-12-05T18:56:46.017Z,1.10
2022-12-05T18:59:16.498Z,0.93
2022-12-05T19:01:43.462Z,0.90
2022-12-05T19:04:12.455Z,1.30
2022-12-05T19:06:39.990Z,2.38
2022-12-05T19:09:07.652Z,1.67
2022-12-05T19:11:34.268Z,1.38
2022-12-05T19:14:01.820Z,1.20
2022-12-05T19:16:29.136Z,0.90
2022-12-05T19:18:56.244Z,1.10
2022-12-05T19:21:26.428Z,0.80
2022-12-05T19:23:53.129Z,0.60
2022-12-05T19:26:19.730Z,0.90
2022-12-05T19:28:46.142Z,1.00
2022-12-05T19:31:15.538Z,0.80
2022-12-05T19:33:43.159Z,0.70
2022-12-05T19:36:17.515Z,0.75
2022-12-05T19:38:44.734Z,0.93
2022-12-05T19:41:12.160Z,0.80
2022-12-05T19:43:38.763Z,0.80
2022-12-05T19:46:06.192Z,0.60
2022-12-05T19:48:32.702Z,0.60
2022-12-05T19:51:00.017Z,0.73
2022-12-05T19:53:28.799Z,0.70
2022-12-05T19:55:59.697Z,0.60
2022-12-05T19:58:26.161Z,0.50
2022-12-05T20:00:52.647Z,0.50
2022-12-05T20:03:19.138Z,0.60
2022-12-05T20:05:55.416Z,0.50
2022-12-05T20:08:21.935Z,0.47
2022-12-05T20:10:50.463Z,0.50
2022-12-05T20:13:45.315Z,0.40
2022-12-05T20:16:04.256Z,0.40
2022-12-05T20:18:31.143Z,0.60
2022-12-05T20:20:58.276Z,0.50
2022-12-05T20:23:25.071Z,0.50
2022-12-05T20:25:51.515Z,0.50
2022-12-05T20:28:17.796Z,0.50
2022-12-05T20:30:44.186Z,0.60
2022-12-05T20:33:10.580Z,0.57
2022-12-05T20:35:37.296Z,0.80
2022-12-05T20:38:04.114Z,0.68
2022-12-05T20:40:30.624Z,1.00
2022-12-05T20:42:57.302Z,0.60
2022-12-05T20:45:23.603Z,1.00
2022-12-05T20:47:51.384Z,0.90
2022-12-05T20:50:17.691Z,1.17
2022-12-05T20:52:47.012Z,0.80
2022-12-05T20:55:13.629Z,0.90
2022-12-05T20:57:40.433Z,0.70
2022-12-05T21:00:07.253Z,0.80
2022-12-05T21:02:33.763Z,0.68
2022-12-05T21:05:00.229Z,0.70
2022-12-05T21:07:27.197Z,0.60
2022-12-05T21:09:53.626Z,0.50
2022-12-05T21:12:20.579Z,0.50
2022-12-05T21:14:46.885Z,0.70
2022-12-05T21:17:13.995Z,0.70
2022-12-05T21:19:40.329Z,0.40
2022-12-05T21:22:06.748Z,0.70
2022-12-05T21:24:33.151Z,0.57
2022-12-05T21:26:59.559Z,0.50
2022-12-05T21:29:25.980Z,0.40
2022-12-05T21:31:52.424Z,0.50
2022-12-05T21:34:22.764Z,0.60
2022-12-05T21:36:49.157Z,1.10
2022-12-05T21:39:15.642Z,1.60
2022-12-05T21:41:42.063Z,0.80
2022-12-05T21:44:08.464Z,1.23
2022-12-05T21:46:34.970Z,1.30
2022-12-05T21:49:01.389Z,1.02
2022-12-05T21:51:27.737Z,0.63
2022-12-05T21:53:54.111Z,0.93
2022-12-05T21:56:25.336Z,0.90
2022-12-05T21:58:52.126Z,0.60
2022-12-05T22:01:23.105Z,1.00
2022-12-05T22:03:53.922Z,0.80
2022-12-05T22:06:20.337Z,1.10
2022-12-05T22:08:46.995Z,0.88
2022-12-05T22:11:18.208Z,1.00
2022-12-05T22:13:44.729Z,0.95
2022-12-05T22:16:12.102Z,0.90
2022-12-05T22:18:38.631Z,0.80
2022-12-05T22:21:06.212Z,0.80
2022-12-05T22:23:33.249Z,0.63
2022-12-05T22:26:00.536Z,0.52
2022-12-05T22:28:27.544Z,0.90
2022-12-05T22:30:55.736Z,0.57
2022-12-05T22:33:22.565Z,0.60
2022-12-05T22:35:58.767Z,0.52
2022-12-05T22:38:26.282Z,0.55
2022-12-05T22:40:53.408Z,0.60
2022-12-05T22:43:19.763Z,0.50
2022-12-05T22:45:46.358Z,0.50
2022-12-05T22:48:12.708Z,0.60
2022-12-05T22:50:39.105Z,0.60
2022-12-05T22:53:05.475Z,0.60
2022-12-05T22:55:31.819Z,0.60
2022-12-05T22:57:58.263Z,0.40
2022-12-05T23:00:24.694Z,0.50
2022-12-05T23:02:52.424Z,0.50
2022-12-05T23:05:18.942Z,0.50
2022-12-05T23:07:45.342Z,0.50
2022-12-05T23:10:11.843Z,0.40
2022-12-05T23:12:38.258Z,0.40
2022-12-05T23:15:04.848Z,0.50
2022-12-05T23:17:31.159Z,0.47
2022-12-05T23:19:57.903Z,0.77
2022-12-05T23:22:24.507Z,0.47
2022-12-05T23:24:50.788Z,0.70
2022-12-05T23:27:19.901Z,0.63
2022-12-05T23:29:46.363Z,0.60
2022-12-05T23:32:12.807Z,0.80
2022-12-05T23:34:39.251Z,0.50
2022-12-05T23:37:05.645Z,0.50
2022-12-05T23:39:32.047Z,0.80
2022-12-05T23:41:58.384Z,0.90
2022-12-05T23:44:24.667Z,1.00
2022-12-05T23:46:51.056Z,0.90
2022-12-05T23:49:17.489Z,0.80
2022-12-05T23:51:43.766Z,0.73
2022-12-05T23:54:10.782Z,0.77
2022-12-05T23:56:37.612Z,0.95
2022-12-05T23:59:05.100Z,0.57
